createdAt,value
2023-02-12T00:00:54.705Z,1.80
2023-02-12T00:01:54.794Z,1.70
2023-02-12T00:02:54.699Z,1.60
2023-02-12T00:03:54.821Z,2.00
2023-02-12T00:04:54.708Z,1.40
2023-02-12T00:05:54.950Z,1.50
2023-02-12T00:06:54.663Z,1.80
2023-02-12T00:07:54.674Z,1.90
2023-02-12T00:08:54.664Z,1.40
2023-02-12T00:09:54.651Z,1.80
2023-02-12T00:10:54.664Z,1.40
2023-02-12T00:11:54.651Z,1.20
2023-02-12T00:12:54.632Z,1.60
2023-02-12T00:13:54.712Z,2.20
2023-02-12T00:14:54.637Z,1.80
2023-02-12T00:15:55.240Z,1.50
2023-02-12T00:16:54.630Z,2.30
2023-02-12T00:17:54.626Z,1.40
2023-02-12T00:18:54.622Z,1.70
2023-02-12T00:19:54.632Z,1.50
2023-02-12T00:20:54.625Z,1.80
2023-02-12T00:21:54.597Z,1.50
2023-02-12T00:22:54.584Z,2.20
2023-02-12T00:24:36.958Z,1.50
2023-02-12T00:25:36.945Z,1.80
2023-02-12T00:26:36.951Z,1.90
2023-02-12T00:27:36.926Z,1.80
2023-02-12T00:28:37.079Z,1.30
2023-02-12T00:29:36.936Z,2.20
2023-02-12T00:30:36.963Z,1.80
2023-02-12T00:31:37.004Z,2.50
2023-02-12T00:32:36.930Z,2.20
2023-02-12T00:33:36.962Z,1.50
2023-02-12T00:34:36.915Z,1.30
2023-02-12T00:35:36.899Z,1.80
2023-02-12T00:36:36.901Z,1.50
2023-02-12T00:37:36.890Z,1.90
2023-02-12T00:38:36.894Z,1.80
2023-02-12T00:39:36.882Z,1.70
2023-02-12T00:40:36.881Z,2.00
2023-02-12T00:41:36.866Z,2.20
2023-02-12T00:42:36.872Z,2.00
2023-02-12T00:43:36.855Z,1.40
2023-02-12T00:44:36.880Z,1.70
2023-02-12T00:45:36.841Z,1.90
2023-02-12T00:46:36.877Z,1.50
2023-02-12T00:47:36.832Z,1.80
2023-02-12T00:48:36.835Z,1.90
2023-02-12T00:49:36.819Z,1.60
2023-02-12T00:50:36.828Z,2.10
2023-02-12T00:51:36.817Z,2.10
2023-02-12T00:52:36.819Z,2.20
2023-02-12T00:53:36.820Z,1.70
2023-02-12T00:54:36.797Z,1.30
2023-02-12T00:55:36.782Z,2.00
2023-02-12T00:56:36.789Z,1.60
2023-02-12T00:57:36.776Z,1.60
2023-02-12T00:58:36.783Z,1.60
2023-02-12T00:59:36.785Z,1.90
2023-02-12T01:00:36.765Z,2.10
2023-02-12T01:01:36.773Z,1.90
2023-02-12T01:02:36.765Z,2.30
2023-02-12T01:03:36.770Z,1.80
2023-02-12T01:04:36.790Z,1.70
2023-02-12T01:05:36.736Z,1.50
2023-02-12T01:06:36.751Z,1.40
2023-02-12T01:07:36.721Z,1.50
2023-02-12T01:08:36.773Z,1.70
2023-02-12T01:09:36.714Z,1.50
2023-02-12T01:10:36.747Z,1.90
2023-02-12T01:11:36.705Z,2.00
2023-02-12T01:12:36.718Z,1.50
2023-02-12T01:13:36.703Z,2.40
2023-02-12T01:14:36.707Z,2.10
2023-02-12T01:15:36.739Z,2.00
2023-02-12T01:16:36.921Z,2.60
2023-02-12T01:17:36.690Z,1.50
2023-02-12T01:18:36.688Z,1.50
2023-02-12T01:19:36.662Z,1.80
2023-02-12T01:20:36.663Z,1.90
2023-02-12T01:21:36.657Z,2.10
2023-02-12T01:22:36.664Z,1.80
2023-02-12T01:23:36.639Z,2.40
2023-02-12T01:24:36.661Z,1.70
2023-02-12T01:25:36.647Z,2.00
2023-02-12T01:26:36.644Z,2.30
2023-02-12T01:27:36.620Z,1.70
2023-02-12T01:28:36.654Z,1.50
2023-02-12T01:29:36.621Z,1.70
2023-02-12T01:30:36.639Z,1.80
2023-02-12T01:31:36.816Z,1.60
2023-02-12T01:32:36.600Z,2.20
2023-02-12T01:33:36.604Z,2.40
2023-02-12T01:34:36.592Z,1.50
2023-02-12T01:35:36.582Z,1.50
2023-02-12T01:36:36.590Z,1.70
2023-02-12T01:37:36.569Z,1.60
2023-02-12T01:38:36.586Z,2.00
2023-02-12T01:39:36.559Z,1.60
2023-02-12T01:40:36.591Z,2.30
2023-02-12T01:41:36.581Z,1.10
2023-02-12T01:42:36.561Z,1.90
2023-02-12T01:43:36.546Z,1.70
2023-02-12T01:44:36.553Z,2.00
2023-02-12T01:45:36.546Z,1.50
2023-02-12T01:46:36.628Z,2.70
2023-02-12T01:47:36.537Z,2.00
2023-02-12T01:48:36.521Z,1.40
2023-02-12T01:49:36.528Z,1.90
2023-02-12T01:50:36.512Z,1.50
2023-02-12T01:51:36.509Z,1.60
2023-02-12T01:52:36.520Z,2.20
2023-02-12T01:53:36.503Z,1.80
2023-02-12T01:54:36.488Z,2.10
2023-02-12T01:55:36.499Z,1.90
2023-02-12T01:56:36.501Z,1.40
2023-02-12T01:57:36.493Z,2.10
2023-02-12T01:58:36.474Z,2.20
2023-02-12T01:59:36.471Z,1.20
2023-02-12T02:00:36.466Z,1.50
2023-02-12T02:01:36.535Z,2.40
2023-02-12T02:02:36.458Z,1.70
2023-02-12T02:03:36.574Z,2.10
2023-02-12T02:04:36.435Z,2.60
2023-02-12T02:05:36.429Z,1.40
2023-02-12T02:06:36.435Z,1.50
2023-02-12T02:07:36.423Z,2.60
2023-02-12T02:08:36.422Z,2.00
2023-02-12T02:09:36.425Z,2.10
2023-02-12T02:10:36.410Z,2.00
2023-02-12T02:11:36.412Z,1.90
2023-02-12T02:12:36.419Z,1.70
2023-02-12T02:13:36.383Z,1.80
2023-02-12T02:14:36.395Z,1.40
2023-02-12T02:15:36.377Z,1.80
2023-02-12T02:16:36.384Z,1.60
2023-02-12T02:17:36.388Z,1.90
2023-02-12T02:18:36.367Z,1.60
2023-02-12T02:19:36.362Z,1.90
2023-02-12T02:20:36.375Z,1.60
2023-02-12T02:21:36.361Z,1.90
2023-02-12T02:22:36.345Z,1.30
2023-02-12T02:23:36.339Z,2.00
2023-02-12T02:24:36.341Z,1.40
2023-02-12T02:25:36.324Z,2.20
2023-02-12T02:26:36.327Z,2.00
2023-02-12T02:27:36.309Z,1.20
2023-02-12T02:28:36.350Z,2.00
2023-02-12T02:29:36.316Z,1.40
2023-02-12T02:30:36.361Z,1.40
2023-02-12T02:31:36.461Z,1.70
2023-02-12T02:32:36.298Z,2.00
2023-02-12T02:33:36.279Z,1.80
2023-02-12T02:34:36.301Z,1.90
2023-02-12T02:35:36.266Z,2.00
2023-02-12T02:36:36.264Z,1.20
2023-02-12T02:37:36.261Z,1.60
2023-02-12T02:38:36.275Z,1.80
2023-02-12T02:39:36.273Z,1.60
2023-02-12T02:40:36.257Z,1.70
2023-02-12T02:41:36.250Z,2.40
2023-02-12T02:42:36.244Z,1.90
2023-02-12T02:43:36.242Z,1.40
2023-02-12T02:44:36.248Z,1.00
2023-02-12T02:45:36.233Z,1.70
2023-02-12T02:46:36.256Z,1.90
2023-02-12T02:47:36.231Z,1.80
2023-02-12T02:48:36.220Z,1.80
2023-02-12T02:49:36.215Z,1.70
2023-02-12T02:50:36.193Z,2.00
2023-02-12T02:51:36.199Z,2.80
2023-02-12T02:52:36.202Z,1.60
2023-02-12T02:53:36.209Z,1.30
2023-02-12T02:54:36.178Z,1.30
2023-02-12T02:55:36.199Z,2.50
2023-02-12T02:56:36.164Z,2.00
2023-02-12T02:57:36.165Z,2.00
2023-02-12T02:58:36.162Z,1.70
2023-02-12T02:59:36.161Z,1.60
2023-02-12T03:00:36.240Z,1.30
2023-02-12T03:01:36.165Z,1.10
2023-02-12T03:02:36.175Z,1.90
2023-02-12T03:03:36.157Z,1.60
2023-02-12T03:04:36.126Z,1.70
2023-02-12T03:05:36.124Z,1.70
2023-02-12T03:06:36.109Z,2.00
2023-02-12T03:07:36.129Z,1.60
2023-02-12T03:08:36.108Z,2.00
2023-02-12T03:09:36.111Z,1.80
2023-02-12T03:10:36.091Z,1.30
2023-02-12T03:11:36.100Z,1.70
2023-02-12T03:12:36.087Z,1.60
2023-02-12T03:13:36.082Z,1.80
2023-02-12T03:14:36.073Z,1.20
2023-02-12T03:15:36.095Z,1.70
2023-02-12T03:16:36.196Z,1.60
2023-02-12T03:17:36.062Z,1.70
2023-02-12T03:18:36.071Z,2.80
2023-02-12T03:19:36.079Z,1.80
2023-02-12T03:20:36.058Z,1.80
2023-02-12T03:21:36.046Z,1.60
2023-02-12T03:22:36.048Z,1.50
2023-02-12T03:23:36.022Z,1.40
2023-02-12T03:24:36.054Z,1.40
2023-02-12T03:25:36.021Z,1.60
2023-02-12T03:26:36.010Z,1.80
2023-02-12T03:27:36.000Z,1.50
2023-02-12T03:28:36.061Z,1.60
2023-02-12T03:29:35.989Z,2.50
2023-02-12T03:30:36.044Z,1.90
2023-02-12T03:31:36.040Z,1.70
2023-02-12T03:32:36.003Z,2.10
2023-02-12T03:33:35.992Z,1.90
2023-02-12T03:34:35.987Z,1.80
2023-02-12T03:35:35.995Z,1.60
2023-02-12T03:36:35.962Z,1.90
2023-02-12T03:37:35.971Z,1.80
2023-02-12T03:38:35.977Z,1.50
2023-02-12T03:39:35.976Z,1.70
2023-02-12T03:40:35.945Z,2.10
2023-02-12T03:41:35.948Z,1.60
2023-02-12T03:42:35.925Z,1.60
2023-02-12T03:43:35.926Z,1.40
2023-02-12T03:44:35.920Z,1.70
2023-02-12T03:45:36.061Z,1.80
2023-02-12T03:46:35.933Z,1.70
2023-02-12T03:47:35.910Z,2.10
2023-02-12T03:48:35.896Z,1.10
2023-02-12T03:49:35.909Z,2.00
2023-02-12T03:50:35.905Z,1.70
2023-02-12T03:51:35.930Z,1.80
2023-02-12T03:52:35.881Z,2.20
2023-02-12T03:53:35.891Z,1.80
2023-02-12T03:54:35.863Z,1.60
2023-02-12T03:55:35.880Z,1.50
2023-02-12T03:56:35.864Z,1.60
2023-02-12T03:57:35.866Z,1.10
2023-02-12T03:58:35.845Z,1.50
2023-02-12T03:59:35.860Z,1.50
2023-02-12T04:00:35.835Z,2.30
2023-02-12T04:01:35.936Z,1.50
2023-02-12T04:02:35.820Z,1.90
2023-02-12T04:03:35.831Z,1.20
2023-02-12T04:04:35.837Z,1.50
2023-02-12T04:05:35.808Z,2.00
2023-02-12T04:06:35.815Z,1.50
2023-02-12T04:07:35.825Z,1.60
2023-02-12T04:08:35.814Z,1.50
2023-02-12T04:09:35.807Z,1.50
2023-02-12T04:10:35.780Z,1.70
2023-02-12T04:11:35.787Z,1.30
2023-02-12T04:12:35.768Z,1.50
2023-02-12T04:13:35.789Z,1.70
2023-02-12T04:14:35.765Z,1.90
2023-02-12T04:15:35.775Z,1.90
2023-02-12T04:16:37.923Z,1.40
2023-02-12T04:17:35.771Z,1.70
2023-02-12T04:18:35.740Z,1.60
2023-02-12T04:19:35.766Z,1.30
2023-02-12T04:20:35.726Z,1.20
2023-02-12T04:21:35.745Z,2.50
2023-02-12T04:22:35.714Z,1.30
2023-02-12T04:23:35.745Z,1.50
2023-02-12T04:24:35.743Z,1.30
2023-02-12T04:25:35.721Z,1.60
2023-02-12T04:26:35.721Z,2.00
2023-02-12T04:27:35.715Z,2.10
2023-02-12T04:28:35.947Z,1.80
2023-02-12T04:29:35.705Z,2.50
2023-02-12T04:30:35.826Z,1.60
2023-02-12T04:31:35.776Z,1.30
2023-02-12T04:32:35.677Z,2.00
2023-02-12T04:33:35.682Z,1.70
2023-02-12T04:34:35.667Z,1.50
2023-02-12T04:35:35.667Z,1.40
2023-02-12T04:36:35.665Z,1.10
2023-02-12T04:37:35.669Z,1.70
2023-02-12T04:38:35.644Z,1.40
2023-02-12T04:39:35.660Z,2.00
2023-02-12T04:40:35.639Z,1.50
2023-02-12T04:41:35.635Z,1.10
2023-02-12T04:42:35.629Z,1.60
2023-02-12T04:43:36.812Z,1.60
2023-02-12T04:44:35.622Z,1.70
2023-02-12T04:45:35.626Z,1.50
2023-02-12T04:46:35.614Z,2.10
2023-02-12T04:47:35.600Z,1.70
2023-02-12T04:48:35.585Z,2.10
2023-02-12T04:49:35.602Z,1.70
2023-02-12T04:50:37.111Z,2.00
2023-02-12T04:51:35.577Z,1.90
2023-02-12T04:52:35.584Z,2.10
2023-02-12T04:53:35.567Z,1.90
2023-02-12T04:54:35.584Z,1.80
2023-02-12T04:55:35.598Z,1.30
2023-02-12T04:56:35.544Z,2.70
2023-02-12T04:57:35.548Z,2.10
2023-02-12T04:58:35.551Z,1.60
2023-02-12T04:59:35.561Z,1.40
2023-02-12T05:00:35.541Z,1.60
2023-02-12T05:01:35.581Z,1.60
2023-02-12T05:02:35.517Z,2.00
2023-02-12T05:03:35.515Z,1.90
2023-02-12T05:04:35.511Z,1.70
2023-02-12T05:05:35.504Z,1.10
2023-02-12T05:06:35.499Z,1.70
2023-02-12T05:07:35.526Z,1.40
2023-02-12T05:08:35.511Z,0.90
2023-02-12T05:09:35.495Z,1.50
2023-02-12T05:10:35.479Z,1.40
2023-02-12T05:11:35.514Z,2.00
2023-02-12T05:12:35.477Z,2.00
2023-02-12T05:13:35.482Z,1.70
2023-02-12T05:14:35.465Z,1.70
2023-02-12T05:15:35.525Z,2.00
2023-02-12T05:16:35.472Z,2.10
2023-02-12T05:17:35.449Z,1.40
2023-02-12T05:18:35.436Z,2.50
2023-02-12T05:19:35.431Z,1.70
2023-02-12T05:20:35.429Z,1.20
2023-02-12T05:21:35.434Z,1.70
2023-02-12T05:22:35.424Z,1.70
2023-02-12T05:23:35.415Z,1.80
2023-02-12T05:24:35.419Z,1.30
2023-02-12T05:25:35.424Z,1.90
2023-02-12T05:26:35.404Z,1.60
2023-02-12T05:27:35.448Z,1.80
2023-02-12T05:28:35.484Z,2.10
2023-02-12T05:29:35.385Z,2.70
2023-02-12T05:30:35.377Z,1.40
2023-02-12T05:31:35.615Z,1.70
2023-02-12T05:32:35.375Z,2.30
2023-02-12T05:33:35.386Z,1.70
2023-02-12T05:34:35.369Z,1.80
2023-02-12T05:35:35.370Z,1.90
2023-02-12T05:36:35.354Z,1.40
2023-02-12T05:37:35.341Z,2.00
2023-02-12T05:38:35.372Z,2.30
2023-02-12T05:39:35.341Z,1.90
2023-02-12T05:40:35.338Z,1.70
2023-02-12T05:41:35.347Z,1.80
2023-02-12T05:42:35.313Z,1.80
2023-02-12T05:43:35.335Z,1.40
2023-02-12T05:44:35.314Z,1.30
2023-02-12T05:45:35.314Z,0.90
2023-02-12T05:46:35.376Z,1.70
2023-02-12T05:47:35.296Z,2.40
2023-02-12T05:48:35.276Z,1.80
2023-02-12T05:49:35.288Z,1.40
2023-02-12T05:50:35.293Z,1.60
2023-02-12T05:51:35.277Z,1.60
2023-02-12T05:52:35.279Z,1.40
2023-02-12T05:53:35.271Z,1.30
2023-02-12T05:54:35.248Z,1.80
2023-02-12T05:55:35.272Z,1.70
2023-02-12T05:56:35.234Z,1.80
2023-02-12T05:57:35.235Z,1.00
2023-02-12T05:58:35.240Z,1.40
2023-02-12T05:59:35.289Z,2.20
2023-02-12T06:00:35.214Z,2.30
2023-02-12T06:01:35.230Z,1.70
2023-02-12T06:02:35.248Z,1.60
2023-02-12T06:03:35.243Z,1.50
2023-02-12T06:04:35.208Z,1.10
2023-02-12T06:05:35.192Z,1.70
2023-02-12T06:06:35.205Z,2.20
2023-02-12T06:07:35.209Z,1.40
2023-02-12T06:08:35.175Z,1.80
2023-02-12T06:09:35.193Z,2.20
2023-02-12T06:10:35.189Z,2.50
2023-02-12T06:11:35.169Z,1.80
2023-02-12T06:12:35.151Z,2.00
2023-02-12T06:13:35.161Z,1.40
2023-02-12T06:14:35.155Z,1.70
2023-02-12T06:15:35.185Z,1.50
2023-02-12T06:16:35.278Z,1.80
2023-02-12T06:17:35.132Z,1.80
2023-02-12T06:18:35.137Z,1.60
2023-02-12T06:19:35.120Z,1.10
2023-02-12T06:20:35.120Z,1.50
2023-02-12T06:21:35.124Z,1.90
2023-02-12T06:22:35.113Z,1.70
2023-02-12T06:23:35.104Z,1.50
2023-02-12T06:24:35.105Z,1.70
2023-02-12T06:25:35.089Z,1.50
2023-02-12T06:26:35.085Z,1.10
2023-02-12T06:27:35.079Z,1.70
2023-02-12T06:28:35.142Z,2.20
2023-02-12T06:29:35.088Z,1.70
2023-02-12T06:30:35.069Z,1.70
2023-02-12T06:31:35.235Z,2.00
2023-02-12T06:32:35.063Z,1.80
2023-02-12T06:33:35.056Z,1.90
2023-02-12T06:34:35.065Z,2.60
2023-02-12T06:35:35.054Z,1.70
2023-02-12T06:36:35.047Z,1.20
2023-02-12T06:37:35.050Z,1.90
2023-02-12T06:38:35.056Z,2.00
2023-02-12T06:39:35.053Z,1.20
2023-02-12T06:40:35.040Z,2.00
2023-02-12T06:41:35.039Z,1.40
2023-02-12T06:42:35.015Z,1.70
2023-02-12T06:43:35.011Z,1.90
2023-02-12T06:44:35.026Z,1.00
2023-02-12T06:45:35.006Z,1.60
2023-02-12T06:46:35.055Z,1.60
2023-02-12T06:47:35.030Z,1.70
2023-02-12T06:48:34.972Z,2.30
2023-02-12T06:49:34.987Z,1.30
2023-02-12T06:50:34.964Z,2.20
2023-02-12T06:51:34.987Z,1.80
2023-02-12T06:52:34.961Z,1.80
2023-02-12T06:53:34.980Z,1.30
2023-02-12T06:54:34.956Z,1.50
2023-02-12T06:55:34.960Z,2.10
2023-02-12T06:56:34.958Z,2.10
2023-02-12T06:57:34.955Z,1.80
2023-02-12T06:58:34.927Z,2.10
2023-02-12T06:59:34.932Z,2.00
2023-02-12T07:00:34.939Z,1.50
2023-02-12T07:01:34.925Z,1.80
2023-02-12T07:02:36.794Z,2.30
2023-02-12T07:03:34.990Z,1.90
2023-02-12T07:04:34.909Z,2.20
2023-02-12T07:05:34.890Z,2.00
2023-02-12T07:06:34.881Z,1.90
2023-02-12T07:07:34.886Z,1.80
2023-02-12T07:08:34.884Z,1.60
2023-02-12T07:09:34.894Z,2.10
2023-02-12T07:10:34.862Z,1.90
2023-02-12T07:11:37.581Z,1.70
2023-02-12T07:12:34.858Z,1.90
2023-02-12T07:13:35.004Z,2.60
2023-02-12T07:14:34.850Z,1.50
2023-02-12T07:15:34.838Z,1.30
2023-02-12T07:16:34.952Z,2.10
2023-02-12T07:17:34.842Z,1.30
2023-02-12T07:18:34.834Z,1.80
2023-02-12T07:19:34.851Z,1.80
2023-02-12T07:20:34.810Z,1.50
2023-02-12T07:21:34.834Z,1.60
2023-02-12T07:22:34.799Z,1.30
2023-02-12T07:23:34.798Z,1.20
2023-02-12T07:24:34.799Z,1.60
2023-02-12T07:25:34.785Z,1.40
2023-02-12T07:26:34.774Z,1.70
2023-02-12T07:27:34.788Z,2.00
2023-02-12T07:28:34.894Z,1.40
2023-02-12T07:29:34.763Z,1.20
2023-02-12T07:30:34.801Z,1.80
2023-02-12T07:31:34.881Z,1.70
2023-02-12T07:32:34.747Z,1.30
2023-02-12T07:33:34.759Z,1.30
2023-02-12T07:34:34.743Z,1.40
2023-02-12T07:35:34.775Z,2.10
2023-02-12T07:36:34.741Z,1.40
2023-02-12T07:37:34.729Z,1.70
2023-02-12T07:38:34.748Z,1.60
2023-02-12T07:39:34.729Z,1.60
2023-02-12T07:40:34.704Z,1.70
2023-02-12T07:41:34.727Z,1.40
2023-02-12T07:42:34.695Z,1.20
2023-02-12T07:43:34.724Z,2.10
2023-02-12T07:44:34.705Z,1.00
2023-02-12T07:45:34.734Z,1.60
2023-02-12T07:46:34.703Z,1.30
2023-02-12T07:47:34.694Z,1.20
2023-02-12T07:48:34.691Z,1.70
2023-02-12T07:49:34.664Z,1.50
2023-02-12T07:50:34.674Z,1.50
2023-02-12T07:51:34.677Z,1.40
2023-02-12T07:52:34.679Z,1.90
2023-02-12T07:53:34.685Z,1.70
2023-02-12T07:54:34.672Z,1.40
2023-02-12T07:55:34.643Z,1.70
2023-02-12T07:56:34.655Z,2.30
2023-02-12T07:57:34.645Z,1.40
2023-02-12T07:58:34.642Z,1.40
2023-02-12T07:59:34.656Z,1.70
2023-02-12T08:00:34.648Z,1.30
2023-02-12T08:01:34.618Z,1.40
2023-02-12T08:02:34.652Z,1.40
2023-02-12T08:03:34.603Z,1.90
2023-02-12T08:04:34.678Z,1.40
2023-02-12T08:05:34.606Z,1.50
2023-02-12T08:06:34.618Z,1.70
2023-02-12T08:07:34.631Z,1.70
2023-02-12T08:08:34.599Z,1.70
2023-02-12T08:09:34.594Z,1.40
2023-02-12T08:10:34.590Z,2.00
2023-02-12T08:11:34.580Z,1.50
2023-02-12T08:12:34.573Z,1.40
2023-02-12T08:13:34.577Z,1.60
2023-02-12T08:14:34.594Z,1.40
2023-02-12T08:15:34.578Z,2.10
2023-02-12T08:16:34.606Z,1.60
2023-02-12T08:17:34.547Z,2.00
2023-02-12T08:18:34.552Z,1.20
2023-02-12T08:19:34.565Z,1.60
2023-02-12T08:20:34.561Z,1.50
2023-02-12T08:21:34.543Z,1.80
2023-02-12T08:22:34.537Z,2.10
2023-02-12T08:23:34.555Z,1.40
2023-02-12T08:24:34.538Z,1.50
2023-02-12T08:25:34.528Z,2.10
2023-02-12T08:26:34.524Z,1.40
2023-02-12T08:27:34.518Z,1.70
2023-02-12T08:28:34.657Z,1.20
2023-02-12T08:29:34.521Z,1.90
2023-02-12T08:30:34.519Z,1.40
2023-02-12T08:31:34.628Z,1.50
2023-02-12T08:32:34.492Z,1.30
2023-02-12T08:33:34.484Z,1.10
2023-02-12T08:34:34.505Z,1.40
2023-02-12T08:35:34.495Z,1.50
2023-02-12T08:36:34.517Z,1.60
2023-02-12T08:37:34.475Z,1.00
2023-02-12T08:38:34.485Z,1.30
2023-02-12T08:39:34.494Z,2.60
2023-02-12T08:40:34.475Z,5.20
2023-02-12T08:41:34.458Z,5.00
2023-02-12T08:42:34.470Z,6.10
2023-02-12T08:43:34.468Z,4.30
2023-02-12T08:44:34.472Z,4.40
2023-02-12T08:45:34.441Z,4.10
2023-02-12T08:46:34.519Z,4.40
2023-02-12T08:47:34.441Z,4.70
2023-02-12T08:48:34.445Z,4.30
2023-02-12T08:49:34.442Z,4.00
2023-02-12T08:50:34.434Z,5.00
2023-02-12T08:51:34.418Z,5.00
2023-02-12T08:52:34.415Z,8.10
2023-02-12T08:53:34.426Z,14.00
2023-02-12T08:54:34.414Z,15.60
2023-02-12T08:55:34.419Z,15.90
2023-02-12T08:56:34.429Z,14.40
2023-02-12T08:57:34.420Z,16.30
2023-02-12T08:58:34.402Z,14.70
2023-02-12T08:59:34.397Z,14.50
2023-02-12T09:00:34.386Z,17.20
2023-02-12T09:01:34.468Z,15.40
2023-02-12T09:02:34.475Z,13.90
2023-02-12T09:03:34.394Z,15.30
2023-02-12T09:04:34.380Z,12.90
2023-02-12T09:05:34.361Z,15.80
2023-02-12T09:06:34.375Z,13.30
2023-02-12T09:07:34.361Z,12.70
2023-02-12T09:08:34.363Z,12.70
2023-02-12T09:09:34.365Z,12.40
2023-02-12T09:10:34.370Z,12.60
2023-02-12T09:11:34.380Z,13.70
2023-02-12T09:12:34.349Z,12.20
2023-02-12T09:13:34.358Z,15.40
2023-02-12T09:14:34.359Z,12.70
2023-02-12T09:15:34.343Z,5.70
2023-02-12T09:16:34.462Z,4.20
2023-02-12T09:17:34.321Z,4.70
2023-02-12T09:18:34.334Z,4.30
2023-02-12T09:19:34.314Z,4.80
2023-02-12T09:20:34.316Z,5.10
2023-02-12T09:21:34.316Z,4.70
2023-02-12T09:22:34.308Z,4.40
2023-02-12T09:23:34.297Z,4.70
2023-02-12T09:24:34.301Z,4.80
2023-02-12T09:25:34.314Z,4.50
2023-02-12T09:26:34.288Z,4.10
2023-02-12T09:27:34.318Z,4.40
2023-02-12T09:28:34.361Z,4.10
2023-02-12T09:29:34.268Z,4.00
2023-02-12T09:30:34.281Z,3.40
2023-02-12T09:31:34.481Z,5.30
2023-02-12T09:32:34.262Z,5.00
2023-02-12T09:33:34.247Z,3.60
2023-02-12T09:34:34.245Z,4.10
2023-02-12T09:35:34.230Z,4.20
2023-02-12T09:36:34.233Z,4.40
2023-02-12T09:37:34.224Z,5.90
2023-02-12T09:38:34.232Z,3.80
2023-02-12T09:39:34.204Z,4.10
2023-02-12T09:40:34.214Z,4.10
2023-02-12T09:41:34.196Z,4.50
2023-02-12T09:42:34.180Z,3.60
2023-02-12T09:43:34.192Z,4.60
2023-02-12T09:44:34.163Z,3.90
2023-02-12T09:45:34.158Z,3.80
2023-02-12T09:46:34.316Z,3.60
2023-02-12T09:47:34.130Z,5.20
2023-02-12T09:48:34.152Z,3.90
2023-02-12T09:49:34.124Z,4.20
2023-02-12T09:50:34.120Z,3.10
2023-02-12T09:51:34.114Z,4.80
2023-02-12T09:52:34.101Z,4.20
2023-02-12T09:53:34.102Z,4.20
2023-02-12T09:54:34.095Z,4.20
2023-02-12T09:55:34.095Z,4.00
2023-02-12T09:56:34.077Z,3.90
2023-02-12T09:57:34.052Z,4.50
2023-02-12T09:58:34.046Z,4.20
2023-02-12T09:59:34.074Z,5.70
2023-02-12T10:00:34.037Z,3.50
2023-02-12T10:01:34.066Z,3.80
2023-02-12T10:02:34.030Z,4.90
2023-02-12T10:03:34.002Z,3.00
2023-02-12T10:04:34.058Z,3.80
2023-02-12T10:05:33.988Z,3.70
2023-02-12T10:06:33.986Z,3.70
2023-02-12T10:07:33.984Z,2.20
2023-02-12T10:08:33.977Z,3.60
2023-02-12T10:09:33.965Z,3.40
2023-02-12T10:10:33.948Z,2.80
2023-02-12T10:11:33.952Z,2.60
2023-02-12T10:12:33.934Z,3.40
2023-02-12T10:13:33.922Z,2.80
2023-02-12T10:14:33.933Z,4.40
2023-02-12T10:15:34.060Z,3.40
2023-02-12T10:16:36.040Z,3.60
2023-02-12T10:17:33.894Z,2.70
2023-02-12T10:18:33.901Z,2.20
2023-02-12T10:19:33.917Z,3.80
2023-02-12T10:20:33.884Z,3.20
2023-02-12T10:21:33.885Z,2.10
2023-02-12T10:22:33.864Z,2.20
2023-02-12T10:23:33.872Z,2.00
2023-02-12T10:24:33.890Z,2.20
2023-02-12T10:25:33.857Z,2.20
2023-02-12T10:26:33.838Z,2.10
2023-02-12T10:27:33.845Z,1.80
2023-02-12T10:28:33.886Z,3.20
2023-02-12T10:29:33.814Z,2.40
2023-02-12T10:30:33.827Z,2.50
2023-02-12T10:31:33.942Z,2.70
2023-02-12T10:32:33.819Z,1.80
2023-02-12T10:33:35.498Z,2.80
2023-02-12T10:34:33.809Z,2.10
2023-02-12T10:35:33.785Z,1.60
2023-02-12T10:36:33.799Z,2.80
2023-02-12T10:37:33.771Z,3.50
2023-02-12T10:38:33.769Z,2.50
2023-02-12T10:39:33.774Z,2.20
2023-02-12T10:40:33.758Z,2.10
2023-02-12T10:41:33.772Z,3.00
2023-02-12T10:42:33.744Z,2.40
2023-02-12T10:43:33.750Z,1.60
2023-02-12T10:44:33.737Z,2.00
2023-02-12T10:45:33.746Z,2.60
2023-02-12T10:46:33.756Z,2.40
2023-02-12T10:47:33.752Z,3.00
2023-02-12T10:48:33.727Z,2.20
2023-02-12T10:49:33.703Z,1.90
2023-02-12T10:50:33.728Z,2.10
2023-02-12T10:51:33.712Z,1.70
2023-02-12T10:52:33.701Z,1.80
2023-02-12T10:53:33.709Z,1.90
2023-02-12T10:54:33.696Z,1.80
2023-02-12T10:55:33.682Z,2.20
2023-02-12T10:56:33.672Z,2.10
2023-02-12T10:57:33.690Z,2.00
2023-02-12T10:58:33.677Z,1.80
2023-02-12T10:59:35.015Z,2.40
2023-02-12T11:00:33.653Z,1.40
2023-02-12T11:01:33.736Z,2.10
2023-02-12T11:02:33.651Z,2.20
2023-02-12T11:03:33.663Z,2.00
2023-02-12T11:04:33.734Z,2.00
2023-02-12T11:05:34.881Z,2.20
2023-02-12T11:06:33.625Z,2.30
2023-02-12T11:07:33.636Z,1.90
2023-02-12T11:08:33.617Z,1.40
2023-02-12T11:09:33.630Z,2.80
2023-02-12T11:10:33.619Z,2.10
2023-02-12T11:11:33.602Z,2.20
2023-02-12T11:12:33.618Z,2.00
2023-02-12T11:13:33.607Z,2.30
2023-02-12T11:14:33.594Z,1.90
2023-02-12T11:15:33.595Z,2.00
2023-02-12T11:16:33.710Z,1.80
2023-02-12T11:17:33.590Z,3.20
2023-02-12T11:18:33.595Z,2.40
2023-02-12T11:19:33.616Z,1.70
2023-02-12T11:20:33.567Z,3.00
2023-02-12T11:21:33.574Z,2.10
2023-02-12T11:22:33.555Z,1.80
2023-02-12T11:23:33.574Z,1.40
2023-02-12T11:24:33.547Z,2.00
2023-02-12T11:25:33.540Z,2.60
2023-02-12T11:26:33.548Z,1.80
2023-02-12T11:27:33.562Z,1.80
2023-02-12T11:28:33.624Z,1.50
2023-02-12T11:29:33.523Z,1.90
2023-02-12T11:30:33.546Z,1.80
2023-02-12T11:31:33.778Z,1.40
2023-02-12T11:32:33.531Z,1.30
2023-02-12T11:33:33.506Z,1.90
2023-02-12T11:34:33.524Z,2.30
2023-02-12T11:35:33.518Z,1.30
2023-02-12T11:36:33.497Z,2.00
2023-02-12T11:37:33.505Z,1.80
2023-02-12T11:38:33.488Z,1.90
2023-02-12T11:39:33.481Z,1.50
2023-02-12T11:40:33.478Z,2.50
2023-02-12T11:41:33.488Z,1.50
2023-02-12T11:42:33.475Z,2.70
2023-02-12T11:43:33.476Z,2.30
2023-02-12T11:44:33.477Z,1.30
2023-02-12T11:45:33.466Z,1.20
2023-02-12T11:46:33.538Z,1.60
2023-02-12T11:47:33.466Z,1.90
2023-02-12T11:48:33.471Z,1.50
2023-02-12T11:49:33.443Z,1.50
2023-02-12T11:50:33.467Z,2.70
2023-02-12T11:51:33.480Z,1.90
2023-02-12T11:52:33.449Z,2.10
2023-02-12T11:53:33.447Z,2.30
2023-02-12T11:54:33.425Z,2.00
2023-02-12T11:55:33.953Z,2.00
2023-02-12T11:56:33.420Z,1.50
2023-02-12T11:57:33.408Z,1.40
2023-02-12T11:58:33.425Z,1.80
2023-02-12T11:59:33.419Z,1.80
2023-02-12T12:00:33.403Z,2.10
2023-02-12T12:01:33.408Z,1.70
2023-02-12T12:02:33.394Z,1.70
2023-02-12T12:03:33.400Z,1.80
2023-02-12T12:04:33.378Z,2.80
2023-02-12T12:05:33.391Z,2.00
2023-02-12T12:06:33.380Z,2.10
2023-02-12T12:07:33.390Z,1.40
2023-02-12T12:08:33.364Z,1.40
2023-02-12T12:09:33.373Z,2.00
2023-02-12T12:10:33.349Z,2.50
2023-02-12T12:11:33.355Z,1.80
2023-02-12T12:12:33.356Z,1.60
2023-02-12T12:13:33.364Z,1.10
2023-02-12T12:14:33.354Z,1.70
2023-02-12T12:15:33.345Z,1.80
2023-02-12T12:16:33.383Z,1.50
2023-02-12T12:17:33.332Z,1.30
2023-02-12T12:18:33.329Z,1.40
2023-02-12T12:19:33.334Z,2.00
2023-02-12T12:20:33.332Z,2.00
2023-02-12T12:21:33.329Z,1.10
2023-02-12T12:22:33.303Z,1.80
2023-02-12T12:23:33.321Z,1.90
2023-02-12T12:24:33.296Z,1.80
2023-02-12T12:25:33.315Z,1.50
2023-02-12T12:26:33.283Z,1.80
2023-02-12T12:27:33.288Z,2.20
2023-02-12T12:28:33.363Z,1.60
2023-02-12T12:29:33.292Z,1.70
2023-02-12T12:30:33.314Z,2.10
2023-02-12T12:31:33.323Z,1.80
2023-02-12T12:32:33.263Z,1.70
2023-02-12T12:33:33.261Z,1.60
2023-02-12T12:34:33.269Z,1.10
2023-02-12T12:35:33.252Z,1.30
2023-02-12T12:36:33.258Z,2.50
2023-02-12T12:37:33.257Z,1.80
2023-02-12T12:38:33.258Z,2.20
2023-02-12T12:39:33.291Z,2.10
2023-02-12T12:40:33.235Z,1.80
2023-02-12T12:41:33.236Z,1.60
2023-02-12T12:42:33.235Z,1.90
2023-02-12T12:43:33.261Z,1.60
2023-02-12T12:44:33.209Z,2.10
2023-02-12T12:45:33.277Z,1.90
2023-02-12T12:46:33.217Z,2.20
2023-02-12T12:47:33.216Z,1.80
2023-02-12T12:48:33.272Z,1.70
2023-02-12T12:49:33.209Z,1.80
2023-02-12T12:50:33.206Z,2.40
2023-02-12T12:51:33.220Z,1.50
2023-02-12T12:52:33.186Z,2.10
2023-02-12T12:53:33.196Z,1.80
2023-02-12T12:54:33.203Z,1.30
2023-02-12T12:55:33.257Z,1.30
2023-02-12T12:56:33.199Z,1.60
2023-02-12T12:57:33.204Z,1.40
2023-02-12T12:58:33.164Z,1.70
2023-02-12T12:59:33.153Z,1.50
2023-02-12T13:00:33.159Z,1.70
2023-02-12T13:01:33.302Z,1.40
2023-02-12T13:02:33.246Z,1.30
2023-02-12T13:03:33.149Z,1.40
2023-02-12T13:04:33.148Z,2.10
2023-02-12T13:05:33.172Z,1.30
2023-02-12T13:06:33.139Z,1.30
2023-02-12T13:07:33.162Z,1.50
2023-02-12T13:08:33.116Z,1.10
2023-02-12T13:09:33.148Z,1.30
2023-02-12T13:10:33.140Z,1.30
2023-02-12T13:11:33.152Z,1.10
2023-02-12T13:12:33.141Z,1.30
2023-02-12T13:13:33.129Z,1.80
2023-02-12T13:14:33.104Z,1.60
2023-02-12T13:15:33.122Z,1.70
2023-02-12T13:16:33.179Z,1.30
2023-02-12T13:17:33.104Z,1.60
2023-02-12T13:18:33.114Z,1.50